sensor_id;sensor_type;location;lat;lon;timestamp;pressure;altitude;pressure_sealevel;temperature;humidity
75923;BME280;64602;47.542;19.090;2022-10-23T11:54:39;100924.50;;;20.91;53.85
75923;BME280;64602;47.542;19.090;2022-10-23T12:04:48;100931.50;;;19.25;59.48
75923;BME280;64602;47.542;19.090;2022-10-23T12:09:57;100926.06;;;19.57;58.19
75923;BME280;64602;47.542;19.090;2022-10-23T12:25:38;100910.59;;;19.42;58.34
75923;BME280;64602;47.542;19.090;2022-10-23T12:30:59;100895.19;;;18.61;62.24
75923;BME280;64602;47.542;19.090;2022-10-23T12:41:27;100871.31;;;18.56;60.60
75923;BME280;64602;47.542;19.090;2022-10-23T12:51:34;100870.44;;;18.36;60.82
75923;BME280;64602;47.542;19.090;2022-10-23T12:56:36;100858.59;;;17.88;63.41
75923;BME280;64602;47.542;19.090;2022-10-23T13:01:39;100851.72;;;17.56;64.84
75923;BME280;64602;47.542;19.090;2022-10-23T13:06:44;100861.44;;;17.43;65.82
75923;BME280;64602;47.542;19.090;2022-10-23T13:11:47;100851.69;;;17.27;66.46
75923;BME280;64602;47.542;19.090;2022-10-23T13:17:01;100852.84;;;17.89;64.50
75923;BME280;64602;47.542;19.090;2022-10-23T13:22:16;100840.66;;;17.32;67.08
75923;BME280;64602;47.542;19.090;2022-10-23T13:27:32;100842.38;;;17.23;67.57
75923;BME280;64602;47.542;19.090;2022-10-23T13:32:34;100840.41;;;16.89;68.76
75923;BME280;64602;47.542;19.090;2022-10-23T13:37:43;100836.63;;;16.70;69.30
75923;BME280;64602;47.542;19.090;2022-10-23T13:42:51;100824.41;;;16.52;70.06
75923;BME280;64602;47.542;19.090;2022-10-23T13:47:54;100838.56;;;16.69;69.63
75923;BME280;64602;47.542;19.090;2022-10-23T13:52:56;100818.62;;;16.58;70.35
75923;BME280;64602;47.542;19.090;2022-10-23T13:57:59;100824.94;;;16.54;70.58
75923;BME280;64602;47.542;19.090;2022-10-23T14:03:01;100812.91;;;16.50;71.06
75923;BME280;64602;47.542;19.090;2022-10-23T14:08:03;100794.03;;;16.38;71.41
75923;BME280;64602;47.542;19.090;2022-10-23T14:13:05;100809.44;;;16.23;72.66
75923;BME280;64602;47.542;19.090;2022-10-23T14:18:07;100800.19;;;16.09;73.06
75923;BME280;64602;47.542;19.090;2022-10-23T14:23:09;100787.34;;;15.99;73.50
75923;BME280;64602;47.542;19.090;2022-10-23T14:28:11;100784.84;;;16.08;73.61
75923;BME280;64602;47.542;19.090;2022-10-23T14:33:13;100773.97;;;15.93;73.94
75923;BME280;64602;47.542;19.090;2022-10-23T14:38:17;100782.44;;;15.96;74.56
75923;BME280;64602;47.542;19.090;2022-10-23T14:43:20;100778.31;;;15.99;74.82
75923;BME280;64602;47.542;19.090;2022-10-23T14:48:22;100779.13;;;15.99;75.21
75923;BME280;64602;47.542;19.090;2022-10-23T14:53:24;100761.09;;;15.93;75.26
75923;BME280;64602;47.542;19.090;2022-10-23T14:58:26;100759.44;;;15.97;75.36
75923;BME280;64602;47.542;19.090;2022-10-23T15:03:29;100744.69;;;15.88;76.01
75923;BME280;64602;47.542;19.090;2022-10-23T15:08:32;100748.25;;;15.84;76.24
75923;BME280;64602;47.542;19.090;2022-10-23T15:13:34;100760.31;;;15.88;77.10
75923;BME280;64602;47.542;19.090;2022-10-23T15:18:36;100750.44;;;15.81;76.90
75923;BME280;64602;47.542;19.090;2022-10-23T15:23:44;100728.56;;;15.76;76.89
75923;BME280;64602;47.542;19.090;2022-10-23T15:28:51;100726.66;;;15.77;77.37
75923;BME280;64602;47.542;19.090;2022-10-23T15:33:57;100715.72;;;15.72;77.46
75923;BME280;64602;47.542;19.090;2022-10-23T15:38:59;100732.41;;;15.75;77.46
75923;BME280;64602;47.542;19.090;2022-10-23T15:44:03;100744.44;;;15.74;77.94
75923;BME280;64602;47.542;19.090;2022-10-23T15:49:06;100742.81;;;15.73;78.33
75923;BME280;64602;47.542;19.090;2022-10-23T15:54:13;100731.56;;;15.65;78.22
75923;BME280;64602;47.542;19.090;2022-10-23T15:59:22;100741.69;;;15.69;78.59
75923;BME280;64602;47.542;19.090;2022-10-23T16:04:25;100739.25;;;15.63;79.16
75923;BME280;64602;47.542;19.090;2022-10-23T16:09:28;100743.66;;;15.58;79.22
75923;BME280;64602;47.542;19.090;2022-10-23T16:14:30;100756.78;;;15.51;80.09
75923;BME280;64602;47.542;19.090;2022-10-23T16:19:33;100771.28;;;15.47;80.13
75923;BME280;64602;47.542;19.090;2022-10-23T16:24:35;100767.75;;;15.46;80.29
75923;BME280;64602;47.542;19.090;2022-10-23T16:29:37;100768.28;;;15.43;80.63
75923;BME280;64602;47.542;19.090;2022-10-23T16:34:39;100786.34;;;15.44;80.65
75923;BME280;64602;47.542;19.090;2022-10-23T16:39:41;100788.53;;;15.37;80.89
75923;BME280;64602;47.542;19.090;2022-10-23T16:44:43;100790.13;;;15.53;80.03
75923;BME280;64602;47.542;19.090;2022-10-23T16:49:45;100793.97;;;15.57;79.71
75923;BME280;64602;47.542;19.090;2022-10-23T16:54:47;100776.47;;;15.64;79.12
75923;BME280;64602;47.542;19.090;2022-10-23T16:59:49;100771.53;;;15.76;78.09
75923;BME280;64602;47.542;19.090;2022-10-23T17:04:51;100771.53;;;15.76;77.55
75923;BME280;64602;47.542;19.090;2022-10-23T17:09:53;100789.56;;;15.87;76.80
75923;BME280;64602;47.542;19.090;2022-10-23T17:14:55;100818.28;;;16.05;75.41
75923;BME280;64602;47.542;19.090;2022-10-23T17:19:57;100809.25;;;16.05;74.76
75923;BME280;64602;47.542;19.090;2022-10-23T17:24:59;100802.94;;;16.04;74.40
75923;BME280;64602;47.542;19.090;2022-10-23T17:30:01;100794.47;;;16.00;74.35
75923;BME280;64602;47.542;19.090;2022-10-23T17:35:04;100789.56;;;15.92;74.80
75923;BME280;64602;47.542;19.090;2022-10-23T17:40:07;100771.78;;;15.85;74.91
75923;BME280;64602;47.542;19.090;2022-10-23T17:45:10;100778.63;;;15.87;75.08
75923;BME280;64602;47.542;19.090;2022-10-23T17:50:12;100783.31;;;15.76;75.09
75923;BME280;64602;47.542;19.090;2022-10-23T17:55:14;100782.75;;;15.79;75.38
75923;BME280;64602;47.542;19.090;2022-10-23T18:00:16;100758.13;;;15.69;75.65
75923;BME280;64602;47.542;19.090;2022-10-23T18:05:18;100748.28;;;15.68;75.73
75923;BME280;64602;47.542;19.090;2022-10-23T18:10:20;100768.25;;;15.69;76.08
75923;BME280;64602;47.542;19.090;2022-10-23T18:15:23;100770.72;;;15.60;76.36
75923;BME280;64602;47.542;19.090;2022-10-23T18:20:25;100763.06;;;15.57;76.76
75923;BME280;64602;47.542;19.090;2022-10-23T18:25:27;100771.53;;;15.55;77.25
75923;BME280;64602;47.542;19.090;2022-10-23T18:30:29;100765.25;;;15.50;77.61
75923;BME280;64602;47.542;19.090;2022-10-23T18:35:34;100767.19;;;15.44;77.85
75923;BME280;64602;47.542;19.090;2022-10-23T18:40:36;100772.94;;;15.43;78.15
75923;BME280;64602;47.542;19.090;2022-10-23T18:45:41;100778.38;;;15.48;78.35
75923;BME280;64602;47.542;19.090;2022-10-23T18:50:43;100767.19;;;15.44;78.62
75923;BME280;64602;47.542;19.090;2022-10-23T18:55:46;100771.81;;;15.44;78.90
75923;BME280;64602;47.542;19.090;2022-10-23T19:00:51;100762.56;;;15.34;78.94
75923;BME280;64602;47.542;19.090;2022-10-23T19:05:53;100770.47;;;15.36;79.29
75923;BME280;64602;47.542;19.090;2022-10-23T19:10:55;100769.91;;;15.34;79.40
75923;BME280;64602;47.542;19.090;2022-10-23T19:16:04;100773.75;;;15.33;79.58
75923;BME280;64602;47.542;19.090;2022-10-23T19:21:06;100765.28;;;15.24;79.73
75923;BME280;64602;47.542;19.090;2022-10-23T19:26:10;100768.28;;;15.23;79.77
75923;BME280;64602;47.542;19.090;2022-10-23T19:31:14;100777.06;;;15.25;80.05
75923;BME280;64602;47.542;19.090;2022-10-23T19:36:16;100784.16;;;15.21;80.26
